Time;durP1;ratioP1;P1;durP2;ratioP2;P2;SDS_P1;SDS_P2;PMS_P1;PMS_P2;Temp;Humidity;BMP_temperature;BMP_pressure;BME280_temperature;BME280_humidity;BME280_pressure;Samples;Min_cycle;Max_cycle;Signal;HPM_P1;HPM_P2
2023/09/25 00:01:09;;;;;;;0.00;0.00;;;14.60;78.70;;;;;;4969649;28;20047;-69
2023/09/25 00:03:35;;;;;;;0.00;0.00;;;14.60;78.60;;;;;;4965829;28;20058;-69
2023/09/25 00:06:01;;;;;;;0.00;0.00;;;14.60;78.60;;;;;;4955153;28;20039;-69
2023/09/25 00:08:26;;;;;;;0.00;0.00;;;14.60;78.60;;;;;;4954555;28;20498;-69
2023/09/25 00:10:52;;;;;;;0.00;0.00;;;14.60;78.50;;;;;;4970261;28;20385;-69
2023/09/25 00:13:18;;;;;;;0.00;0.00;;;14.60;78.60;;;;;;4971970;28;20500;-69
2023/09/25 00:15:44;;;;;;;0.00;0.00;;;14.50;78.40;;;;;;4971391;28;20043;-69
2023/09/25 00:18:13;;;;;;;0.00;0.00;;;14.60;78.60;;;;;;4971836;28;20047;-69
2023/09/25 00:20:39;;;;;;;0.00;0.00;;;14.50;79.20;;;;;;4969147;28;20061;-69
2023/09/25 00:23:05;;;;;;;0.00;0.00;;;14.50;79.00;;;;;;4960537;28;20042;-69
2023/09/25 00:25:31;;;;;;;0.00;0.00;;;14.50;79.30;;;;;;4971798;28;20050;-69
2023/09/25 00:27:57;;;;;;;0.00;0.00;;;14.50;79.20;;;;;;4971261;28;20114;-69
2023/09/25 00:30:23;;;;;;;0.00;0.00;;;14.50;79.40;;;;;;4970559;28;20094;-69
2023/09/25 00:32:50;;;;;;;0.00;0.00;;;14.40;79.50;;;;;;4968038;28;20042;-69
2023/09/25 00:35:16;;;;;;;0.55;0.45;;;14.30;79.60;;;;;;4970775;28;20523;-69
2023/09/25 00:37:42;;;;;;;0.00;0.00;;;14.40;79.50;;;;;;4970959;28;20042;-69
2023/09/25 00:40:17;;;;;;;0.00;0.00;;;14.40;79.40;;;;;;4971046;28;20039;-69
2023/09/25 00:42:51;;;;;;;0.00;0.00;;;14.40;79.10;;;;;;4953689;28;20117;-68
2023/09/25 00:45:17;;;;;;;0.00;0.00;;;14.30;79.50;;;;;;4954753;28;20093;-69
2023/09/25 00:47:43;;;;;;;0.10;0.10;;;14.30;79.80;;;;;;4970831;28;20074;-69
2023/09/25 00:50:09;;;;;;;0.00;0.00;;;14.30;79.70;;;;;;4971016;28;20046;-69
2023/09/25 00:52:37;;;;;;;0.00;0.00;;;14.30;79.80;;;;;;4970992;28;20042;-69
2023/09/25 00:55:04;;;;;;;0.00;0.00;;;14.30;79.80;;;;;;4970526;28;20051;-68
2023/09/25 00:57:32;;;;;;;0.00;0.00;;;14.20;79.90;;;;;;4970889;28;20476;-69
2023/09/25 00:59:58;;;;;;;0.05;0.05;;;14.20;79.80;;;;;;4970853;28;20082;-69
2023/09/25 01:02:24;;;;;;;0.00;0.00;;;14.20;80.00;;;;;;4970759;28;20519;-69
2023/09/25 01:04:50;;;;;;;0.00;0.00;;;14.20;79.90;;;;;;4970316;28;20074;-69
2023/09/25 01:07:19;;;;;;;0.00;0.00;;;14.10;80.10;;;;;;4969806;28;20043;-69
2023/09/25 01:10:05;;;;;;;0.00;0.00;;;14.10;80.20;;;;;;4961642;28;20054;-69
2023/09/25 01:12:31;;;;;;;0.00;0.00;;;14.10;80.00;;;;;;4964094;28;20073;-68
2023/09/25 01:14:57;;;;;;;0.00;0.00;;;14.10;80.30;;;;;;4970398;28;20085;-69
2023/09/25 01:17:22;;;;;;;0.00;0.00;;;14.10;80.10;;;;;;4970418;28;20046;-69
2023/09/25 01:19:48;;;;;;;0.00;0.00;;;14.10;79.90;;;;;;4972299;28;20051;-69
2023/09/25 01:22:13;;;;;;;0.00;0.00;;;14.10;79.80;;;;;;4971270;28;20047;-69
2023/09/25 01:24:39;;;;;;;0.15;0.15;;;14.00;80.00;;;;;;4971095;28;20062;-69
2023/09/25 01:27:04;;;;;;;0.10;0.10;;;14.00;79.90;;;;;;4970630;28;20046;-69
2023/09/25 01:29:30;;;;;;;0.00;0.00;;;13.90;80.20;;;;;;4970801;28;20121;-69
2023/09/25 01:31:56;;;;;;;0.55;0.45;;;13.90;79.90;;;;;;4970807;28;20093;-69
2023/09/25 01:34:23;;;;;;;0.05;0.05;;;13.80;80.10;;;;;;4971406;28;20479;-69
2023/09/25 01:36:48;;;;;;;0.00;0.00;;;13.90;80.30;;;;;;4970901;28;20570;-69
2023/09/25 01:39:14;;;;;;;0.00;0.00;;;13.80;80.60;;;;;;4971289;28;20043;-69
2023/09/25 01:41:40;;;;;;;0.10;0.10;;;13.80;80.30;;;;;;4971261;28;20051;-69
2023/09/25 01:44:06;;;;;;;0.25;0.25;;;13.80;80.30;;;;;;4977366;28;20112;-69
2023/09/25 01:46:32;;;;;;;0.00;0.00;;;13.80;80.50;;;;;;4990438;28;20054;-69
2023/09/25 01:48:58;;;;;;;0.00;0.00;;;13.70;80.50;;;;;;4990404;28;20070;-69
2023/09/25 01:51:23;;;;;;;0.00;0.00;;;13.80;80.50;;;;;;4989784;28;20038;-69
2023/09/25 01:53:50;;;;;;;0.20;0.20;;;13.80;80.30;;;;;;4988428;28;20526;-69
2023/09/25 01:56:16;;;;;;;0.00;0.00;;;13.80;80.50;;;;;;4989810;28;20526;-69
2023/09/25 01:58:42;;;;;;;1.08;0.95;;;13.80;80.40;;;;;;4984089;28;20046;-69
2023/09/25 02:01:08;;;;;;;0.00;0.00;;;13.80;80.40;;;;;;4964282;28;20047;-69
2023/09/25 02:03:34;;;;;;;0.00;0.00;;;13.70;80.20;;;;;;4968754;28;20039;-69
2023/09/25 02:05:59;;;;;;;0.10;0.10;;;13.70;80.20;;;;;;4967556;28;20042;-69
2023/09/25 02:08:25;;;;;;;0.00;0.00;;;13.70;80.30;;;;;;4968765;28;20047;-69
2023/09/25 02:10:50;;;;;;;0.00;0.00;;;13.70;80.20;;;;;;4968054;28;20043;-69
2023/09/25 02:13:16;;;;;;;0.20;0.20;;;13.60;80.20;;;;;;4967540;28;20545;-69
2023/09/25 02:15:42;;;;;;;0.00;0.00;;;13.60;80.30;;;;;;4969997;28;20693;-69
2023/09/25 02:18:08;;;;;;;0.10;0.10;;;13.60;80.30;;;;;;4968238;28;20047;-69
2023/09/25 02:20:34;;;;;;;0.60;0.60;;;13.60;80.50;;;;;;4968961;28;20131;-69
2023/09/25 02:23:00;;;;;;;0.00;0.00;;;13.60;80.50;;;;;;4968638;28;20046;-69
2023/09/25 02:25:26;;;;;;;0.00;0.00;;;13.50;80.80;;;;;;4968474;28;20034;-69
2023/09/25 02:27:51;;;;;;;0.00;0.00;;;13.50;80.80;;;;;;4965702;28;20039;-69
2023/09/25 02:30:17;;;;;;;0.00;0.00;;;13.50;80.80;;;;;;4967937;28;20039;-69
2023/09/25 02:32:43;;;;;;;0.10;0.10;;;13.50;81.10;;;;;;4968840;28;20051;-69
2023/09/25 02:35:10;;;;;;;0.00;0.00;;;13.40;81.20;;;;;;4970728;28;20551;-69
2023/09/25 02:37:37;;;;;;;0.00;0.00;;;13.40;81.00;;;;;;4970808;28;20038;-69
2023/09/25 02:40:05;;;;;;;0.00;0.00;;;13.40;80.90;;;;;;4970739;28;20050;-69
2023/09/25 02:42:31;;;;;;;0.10;0.10;;;13.40;81.10;;;;;;4971799;28;20167;-68
2023/09/25 02:44:56;;;;;;;0.00;0.00;;;13.30;81.10;;;;;;4972183;28;20059;-69
2023/09/25 02:47:22;;;;;;;0.10;0.10;;;13.30;81.10;;;;;;4971886;28;20047;-69
2023/09/25 02:49:47;;;;;;;0.00;0.00;;;13.40;81.30;;;;;;4971529;28;20073;-68
2023/09/25 02:52:13;;;;;;;0.20;0.20;;;13.30;80.90;;;;;;4971831;28;20090;-69
2023/09/25 02:54:38;;;;;;;0.80;0.80;;;13.30;80.80;;;;;;4977018;28;20054;-68
2023/09/25 02:57:04;;;;;;;0.80;0.80;;;13.30;81.10;;;;;;4972682;28;20050;-69
2023/09/25 02:59:30;;;;;;;0.03;0.03;;;13.30;81.10;;;;;;4971749;28;20027;-69
2023/09/25 03:01:55;;;;;;;0.30;0.30;;;13.30;81.00;;;;;;4971640;28;20097;-69
2023/09/25 03:04:21;;;;;;;0.00;0.00;;;13.30;81.20;;;;;;4972010;28;20039;-69
2023/09/25 03:06:47;;;;;;;0.10;0.10;;;13.20;80.80;;;;;;4971256;28;20443;-69
2023/09/25 03:09:12;;;;;;;0.00;0.00;;;13.20;80.80;;;;;;4971773;28;20035;-69
2023/09/25 03:11:38;;;;;;;0.00;0.00;;;13.20;81.10;;;;;;4971618;28;20132;-68
2023/09/25 03:14:04;;;;;;;0.10;0.10;;;13.20;81.20;;;;;;4972689;28;20038;-69
2023/09/25 03:16:30;;;;;;;0.00;0.00;;;13.10;81.20;;;;;;4971553;28;20046;-69
2023/09/25 03:18:56;;;;;;;0.00;0.00;;;13.10;81.30;;;;;;4967816;28;20035;-69
2023/09/25 03:21:22;;;;;;;0.00;0.00;;;13.20;81.10;;;;;;4971218;28;20097;-69
2023/09/25 03:23:48;;;;;;;0.05;0.05;;;13.10;81.20;;;;;;4971471;28;20051;-69
2023/09/25 03:26:17;;;;;;;0.00;0.00;;;13.10;81.30;;;;;;4971622;28;20130;-69
2023/09/25 03:28:44;;;;;;;0.00;0.00;;;13.10;81.30;;;;;;4971167;28;20078;-69
2023/09/25 03:31:11;;;;;;;0.00;0.00;;;13.10;81.30;;;;;;4971253;28;20049;-69
2023/09/25 03:33:37;;;;;;;0.00;0.00;;;13.10;81.30;;;;;;4970702;28;20098;-69
2023/09/25 03:36:03;;;;;;;0.00;0.00;;;13.10;81.30;;;;;;4970986;28;20046;-69
2023/09/25 03:38:30;;;;;;;0.00;0.00;;;13.10;81.20;;;;;;4970605;28;20563;-69
2023/09/25 03:40:55;;;;;;;0.00;0.00;;;13.10;81.60;;;;;;4970914;28;20055;-69
2023/09/25 03:43:21;;;;;;;0.00;0.00;;;13.10;81.30;;;;;;4971523;28;20116;-69
2023/09/25 03:45:47;;;;;;;0.10;0.10;;;13.10;81.20;;;;;;4968776;28;20054;-68
2023/09/25 03:48:13;;;;;;;0.00;0.00;;;13.10;81.20;;;;;;4970575;28;20066;-69
2023/09/25 03:50:38;;;;;;;0.00;0.00;;;13.10;81.30;;;;;;4971138;28;20065;-69
2023/09/25 03:53:04;;;;;;;0.05;0.05;;;13.10;81.20;;;;;;4968626;28;20047;-68
2023/09/25 03:55:29;;;;;;;0.00;0.00;;;13.10;80.80;;;;;;4956934;28;20039;-69
2023/09/25 03:57:55;;;;;;;0.00;0.00;;;13.10;81.20;;;;;;4971558;28;20050;-69
2023/09/25 04:00:21;;;;;;;0.00;0.00;;;13.10;81.30;;;;;;4971861;28;20043;-69
2023/09/25 04:02:47;;;;;;;0.00;0.00;;;13.10;81.10;;;;;;4977995;28;20129;-69
2023/09/25 04:05:13;;;;;;;0.20;0.20;;;13.10;81.00;;;;;;4984692;28;20472;-69
2023/09/25 04:07:39;;;;;;;0.10;0.10;;;13.10;80.70;;;;;;4971717;28;20050;-69
2023/09/25 04:10:07;;;;;;;0.00;0.00;;;13.10;81.00;;;;;;4971575;28;20057;-69
2023/09/25 04:12:34;;;;;;;0.00;0.00;;;13.10;81.00;;;;;;4971613;28;20042;-68
2023/09/25 04:15:00;;;;;;;0.00;0.00;;;13.10;80.80;;;;;;4971048;28;20073;-69
2023/09/25 04:17:27;;;;;;;0.00;0.00;;;13.10;81.00;;;;;;4971018;28;20043;-69
2023/09/25 04:19:53;;;;;;;0.00;0.00;;;13.10;81.10;;;;;;4971639;28;20575;-70
2023/09/25 04:22:20;;;;;;;0.00;0.00;;;13.10;81.00;;;;;;4976183;28;20042;-69
2023/09/25 04:24:46;;;;;;;0.00;0.00;;;13.10;81.00;;;;;;4990334;28;20042;-69
2023/09/25 04:27:11;;;;;;;0.00;0.00;;;13.10;81.30;;;;;;4974564;28;20055;-69
2023/09/25 04:29:38;;;;;;;0.00;0.00;;;13.10;81.10;;;;;;4971097;28;20412;-69
2023/09/25 04:32:04;;;;;;;0.43;0.30;;;13.10;81.00;;;;;;4971305;28;20057;-69
2023/09/25 04:34:30;;;;;;;0.00;0.00;;;13.10;81.10;;;;;;4970571;28;20404;-69
2023/09/25 04:36:58;;;;;;;0.10;0.10;;;13.10;81.20;;;;;;4960695;28;20038;-69
2023/09/25 04:39:24;;;;;;;0.00;0.00;;;13.10;81.10;;;;;;4970426;28;20121;-68
2023/09/25 04:41:50;;;;;;;0.00;0.00;;;13.10;81.20;;;;;;4965149;28;20138;-69
2023/09/25 04:44:16;;;;;;;0.05;0.05;;;13.10;81.10;;;;;;4956963;28;20055;-69
2023/09/25 04:46:41;;;;;;;0.00;0.00;;;13.10;81.20;;;;;;4960811;28;20063;-69
2023/09/25 04:49:07;;;;;;;0.03;0.03;;;13.10;81.50;;;;;;4956225;28;20130;-69
2023/09/25 04:51:34;;;;;;;0.00;0.00;;;13.00;81.70;;;;;;4959396;28;20051;-69
2023/09/25 04:54:00;;;;;;;0.00;0.00;;;13.00;81.60;;;;;;4951655;28;20043;-69
2023/09/25 04:56:27;;;;;;;0.00;0.00;;;13.10;81.70;;;;;;4952251;28;20715;-69
2023/09/25 04:58:53;;;;;;;0.00;0.00;;;13.10;81.40;;;;;;4951751;28;20054;-68
2023/09/25 05:01:19;;;;;;;0.00;0.00;;;13.10;81.60;;;;;;4959124;28;20423;-68
2023/09/25 05:03:45;;;;;;;0.00;0.00;;;13.00;81.60;;;;;;4960875;28;20047;-69
2023/09/25 05:06:13;;;;;;;0.03;0.03;;;13.10;81.50;;;;;;4954195;28;20146;-69
2023/09/25 05:08:39;;;;;;;0.00;0.00;;;13.10;81.50;;;;;;4960394;28;20038;-69
2023/09/25 05:11:07;;;;;;;0.10;0.10;;;13.10;81.80;;;;;;4954758;28;20066;-69
2023/09/25 05:13:33;;;;;;;0.00;0.00;;;13.00;81.80;;;;;;4960682;28;20083;-68
2023/09/25 05:16:00;;;;;;;0.00;0.00;;;13.00;81.50;;;;;;4962668;28;20078;-69
2023/09/25 05:18:26;;;;;;;0.00;0.00;;;13.10;81.60;;;;;;4960258;28;20046;-69
2023/09/25 05:20:51;;;;;;;0.00;0.00;;;13.00;81.50;;;;;;4962973;28;20077;-68
2023/09/25 05:23:18;;;;;;;0.00;0.00;;;13.10;81.50;;;;;;4958633;28;20054;-69
2023/09/25 05:25:44;;;;;;;0.00;0.00;;;13.10;81.30;;;;;;4960037;28;20659;-70
2023/09/25 05:28:10;;;;;;;0.00;0.00;;;13.10;81.20;;;;;;4964010;28;20237;-68
2023/09/25 05:30:35;;;;;;;0.00;0.00;;;13.10;81.30;;;;;;4961797;28;20547;-70
2023/09/25 05:33:01;;;;;;;0.00;0.00;;;13.10;81.40;;;;;;4959662;28;20058;-70
2023/09/25 05:35:26;;;;;;;0.00;0.00;;;13.10;81.60;;;;;;4959511;28;20408;-69
2023/09/25 05:37:52;;;;;;;0.00;0.00;;;13.10;81.50;;;;;;4968206;28;20050;-68
2023/09/25 05:40:18;;;;;;;0.00;0.00;;;13.10;81.50;;;;;;4962978;28;20042;-69
2023/09/25 05:42:45;;;;;;;0.35;0.35;;;13.10;81.40;;;;;;4956995;28;20035;-69
2023/09/25 05:45:12;;;;;;;0.00;0.00;;;13.10;81.40;;;;;;4967286;28;20074;-70
2023/09/25 05:47:38;;;;;;;0.00;0.00;;;13.10;81.60;;;;;;4966408;28;20050;-70
2023/09/25 05:50:07;;;;;;;0.00;0.00;;;13.10;81.70;;;;;;4960289;28;20043;-69
2023/09/25 05:52:34;;;;;;;0.00;0.00;;;13.10;81.50;;;;;;4960816;28;20061;-70
2023/09/25 05:55:01;;;;;;;0.00;0.00;;;13.10;81.50;;;;;;4955845;28;20571;-69
2023/09/25 05:57:26;;;;;;;0.00;0.00;;;13.10;81.50;;;;;;4953836;28;20051;-69
2023/09/25 05:59:53;;;;;;;0.00;0.00;;;13.10;81.40;;;;;;4956472;28;20051;-70
2023/09/25 06:02:18;;;;;;;0.00;0.00;;;13.10;81.50;;;;;;4961202;28;20051;-70
2023/09/25 06:04:47;;;;;;;0.35;0.30;;;13.20;81.20;;;;;;4963473;28;20078;-69
2023/09/25 06:07:13;;;;;;;0.00;0.00;;;13.20;81.30;;;;;;4960716;28;20089;-69
2023/09/25 06:09:39;;;;;;;0.10;0.10;;;13.20;81.40;;;;;;4981111;28;20050;-69
2023/09/25 06:12:05;;;;;;;0.00;0.00;;;13.20;81.30;;;;;;4964449;28;20042;-69
2023/09/25 06:14:31;;;;;;;0.00;0.00;;;13.30;81.20;;;;;;4962874;28;20050;-69
2023/09/25 06:16:59;;;;;;;0.00;0.00;;;13.30;81.10;;;;;;4968841;28;20117;-71
2023/09/25 06:19:25;;;;;;;0.00;0.00;;;13.30;81.40;;;;;;4963518;28;20054;-62
2023/09/25 06:21:51;;;;;;;0.13;0.13;;;13.40;81.70;;;;;;4970372;28;20090;-66
2023/09/25 06:24:16;;;;;;;0.30;0.30;;;13.80;83.80;;;;;;4963184;28;20093;-66
2023/09/25 06:26:46;;;;;;;0.08;0.08;;;13.80;82.20;;;;;;4961494;28;20087;-66
2023/09/25 06:29:13;;;;;;;0.00;0.00;;;13.70;81.10;;;;;;4954734;28;20456;-66
2023/09/25 06:31:39;;;;;;;0.10;0.10;;;13.70;80.80;;;;;;4968342;28;20536;-67
2023/09/25 06:34:07;;;;;;;0.00;0.00;;;13.70;80.70;;;;;;4964679;28;20411;-66
2023/09/25 06:36:33;;;;;;;0.03;0.03;;;13.60;80.50;;;;;;4965722;28;20055;-65
2023/09/25 06:38:59;;;;;;;0.00;0.00;;;13.60;80.40;;;;;;4967022;28;20499;-66
2023/09/25 06:41:25;;;;;;;0.20;0.20;;;13.60;80.40;;;;;;4970065;28;20051;-66
2023/09/25 06:43:51;;;;;;;0.00;0.00;;;13.60;80.30;;;;;;4987848;28;20059;-67
2023/09/25 06:46:17;;;;;;;0.28;0.28;;;13.70;80.20;;;;;;4970612;28;20113;-66
2023/09/25 06:48:42;;;;;;;0.00;0.00;;;13.60;80.20;;;;;;4967168;28;20094;-66
2023/09/25 06:51:08;;;;;;;0.00;0.00;;;13.60;80.20;;;;;;4961474;28;20035;-66
2023/09/25 06:53:33;;;;;;;0.00;0.00;;;13.60;80.20;;;;;;4964615;28;20051;-67
2023/09/25 06:55:59;;;;;;;0.10;0.10;;;13.60;80.30;;;;;;4961160;28;20097;-67
2023/09/25 06:58:25;;;;;;;0.00;0.00;;;13.60;80.40;;;;;;4964929;28;20058;-66
2023/09/25 07:00:51;;;;;;;0.00;0.00;;;13.70;80.50;;;;;;4965256;28;20109;-66
2023/09/25 07:03:16;;;;;;;0.03;0.03;;;13.70;80.40;;;;;;4965655;28;20936;-66
2023/09/25 07:05:42;;;;;;;0.00;0.00;;;13.70;80.30;;;;;;4960058;28;20457;-66
2023/09/25 07:08:08;;;;;;;0.05;0.05;;;13.70;80.20;;;;;;4962868;28;20042;-67
2023/09/25 07:10:34;;;;;;;0.00;0.00;;;13.70;80.20;;;;;;4957657;28;20499;-66
2023/09/25 07:12:59;;;;;;;0.10;0.10;;;13.70;80.40;;;;;;4980364;28;20109;-67
2023/09/25 07:15:26;;;;;;;0.00;0.00;;;13.80;80.10;;;;;;4958855;28;20057;-67
2023/09/25 07:17:51;;;;;;;0.03;0.03;;;13.80;80.00;;;;;;4957984;28;20424;-66
2023/09/25 07:20:17;;;;;;;0.00;0.00;;;13.80;80.00;;;;;;4960811;28;20122;-67
2023/09/25 07:22:45;;;;;;;0.00;0.00;;;13.80;79.50;;;;;;4965647;28;20050;-66
2023/09/25 07:25:10;;;;;;;0.00;0.00;;;13.80;79.60;;;;;;4959393;28;20412;-66
2023/09/25 07:27:36;;;;;;;0.00;0.00;;;13.90;79.70;;;;;;4957479;28;20053;-66
2023/09/25 07:30:05;;;;;;;0.00;0.00;;;13.90;79.70;;;;;;4965055;28;20046;-67
2023/09/25 07:32:32;;;;;;;0.00;0.00;;;13.90;79.50;;;;;;4960125;28;20705;-66
2023/09/25 07:34:58;;;;;;;0.10;0.10;;;13.90;79.50;;;;;;4960819;28;20078;-66
2023/09/25 07:37:24;;;;;;;0.00;0.00;;;14.00;79.50;;;;;;4963628;28;20062;-67
2023/09/25 07:39:50;;;;;;;0.00;0.00;;;14.00;79.20;;;;;;4959878;28;20043;-66
2023/09/25 07:42:15;;;;;;;0.03;0.03;;;14.00;78.90;;;;;;4957087;28;20054;-67
2023/09/25 07:44:42;;;;;;;0.05;0.05;;;14.10;79.20;;;;;;4962301;28;20110;-69
2023/09/25 07:47:10;;;;;;;0.00;0.00;;;14.10;79.20;;;;;;4952607;28;20066;-68
2023/09/25 07:49:40;;;;;;;0.05;0.05;;;14.10;79.20;;;;;;4952504;28;20039;-68
2023/09/25 07:52:15;;;;;;;0.00;0.00;;;14.10;78.80;;;;;;4952529;28;20055;-67
2023/09/25 07:54:44;;;;;;;0.00;0.00;;;14.20;78.80;;;;;;4952598;28;20059;-67
2023/09/25 07:57:14;;;;;;;0.00;0.00;;;14.20;78.90;;;;;;4952728;28;20059;-67
2023/09/25 07:59:40;;;;;;;0.80;0.80;;;14.30;78.80;;;;;;4959561;28;20138;-67
2023/09/25 08:02:07;;;;;;;0.00;0.00;;;14.30;78.40;;;;;;4961567;28;20413;-67
2023/09/25 08:04:35;;;;;;;0.28;0.28;;;14.30;78.20;;;;;;4961746;28;20082;-67
2023/09/25 08:07:01;;;;;;;0.00;0.00;;;14.40;78.30;;;;;;4979263;28;20512;-67
2023/09/25 08:09:27;;;;;;;0.00;0.00;;;14.40;77.90;;;;;;4959629;28;20034;-67
2023/09/25 08:11:52;;;;;;;0.00;0.00;;;14.50;77.70;;;;;;4955837;28;20054;-67
2023/09/25 08:14:18;;;;;;;0.22;0.22;;;14.50;77.80;;;;;;4957497;28;20050;-68
2023/09/25 08:16:44;;;;;;;0.20;0.20;;;14.60;77.90;;;;;;4940408;28;20055;-67
2023/09/25 08:19:09;;;;;;;0.00;0.00;;;14.60;77.70;;;;;;4970668;28;20106;-67
2023/09/25 08:21:35;;;;;;;0.00;0.00;;;14.60;77.40;;;;;;4959993;28;20058;-67
2023/09/25 08:24:00;;;;;;;0.00;0.00;;;14.60;77.60;;;;;;4965570;28;20452;-67
2023/09/25 08:26:26;;;;;;;0.05;0.05;;;14.80;77.80;;;;;;4960716;28;20988;-67
2023/09/25 08:28:51;;;;;;;0.00;0.00;;;14.80;77.50;;;;;;4967323;28;20038;-67
2023/09/25 08:31:17;;;;;;;0.00;0.00;;;14.80;77.00;;;;;;4962063;28;20815;-68
2023/09/25 08:33:43;;;;;;;0.00;0.00;;;14.90;77.20;;;;;;4957759;28;20047;-67
2023/09/25 08:36:10;;;;;;;0.00;0.00;;;15.00;77.30;;;;;;4958909;28;20058;-67
2023/09/25 08:38:36;;;;;;;0.00;0.00;;;15.00;77.20;;;;;;4959022;28;20051;-67
2023/09/25 08:41:02;;;;;;;0.00;0.00;;;15.10;76.50;;;;;;4961845;28;20069;-68
2023/09/25 08:43:28;;;;;;;0.52;0.52;;;15.10;76.70;;;;;;4965883;28;20051;-68
2023/09/25 08:45:56;;;;;;;0.00;0.00;;;15.10;76.50;;;;;;4969369;28;20133;-68
2023/09/25 08:48:22;;;;;;;0.20;0.20;;;15.20;76.80;;;;;;4967361;28;20070;-67
2023/09/25 08:50:49;;;;;;;0.00;0.00;;;15.30;76.60;;;;;;4966486;28;20136;-68
2023/09/25 08:53:15;;;;;;;0.20;0.20;;;15.40;76.60;;;;;;4969123;28;20043;-67
2023/09/25 08:55:42;;;;;;;0.03;0.03;;;15.50;76.50;;;;;;4969277;28;20062;-67
2023/09/25 08:58:09;;;;;;;0.10;0.10;;;15.60;76.70;;;;;;4969098;28;20097;-67
2023/09/25 09:00:35;;;;;;;0.00;0.00;;;15.60;76.50;;;;;;4966151;28;20523;-67
2023/09/25 09:03:01;;;;;;;0.00;0.00;;;15.70;75.90;;;;;;4967377;28;20038;-67
2023/09/25 09:05:26;;;;;;;0.00;0.00;;;15.80;75.30;;;;;;4968587;28;20117;-67
2023/09/25 09:07:56;;;;;;;0.00;0.00;;;15.90;75.80;;;;;;4968281;28;20130;-67
2023/09/25 09:10:21;;;;;;;0.35;0.35;;;16.00;75.20;;;;;;4968466;28;20389;-67
2023/09/25 09:12:53;;;;;;;0.00;0.00;;;16.00;74.80;;;;;;4967985;28;20089;-66
2023/09/25 09:15:26;;;;;;;0.00;0.00;;;16.10;75.50;;;;;;4968994;28;20062;-67
2023/09/25 09:17:53;;;;;;;0.00;0.00;;;16.20;74.40;;;;;;4968549;28;20137;-68
2023/09/25 09:20:21;;;;;;;0.17;0.17;;;16.20;74.80;;;;;;4966944;28;20047;-67
2023/09/25 09:22:51;;;;;;;0.00;0.00;;;16.40;73.80;;;;;;4968025;28;20043;-66
2023/09/25 09:25:20;;;;;;;0.00;0.00;;;16.50;73.90;;;;;;4983671;28;20501;-67
2023/09/25 09:27:46;;;;;;;0.00;0.00;;;16.60;74.40;;;;;;4963679;28;20174;-67
2023/09/25 09:30:22;;;;;;;0.00;0.00;;;16.60;73.00;;;;;;4968495;28;20117;-67
2023/09/25 09:32:51;;;;;;;0.00;0.00;;;16.70;73.40;;;;;;4968796;28;20142;-68
2023/09/25 09:35:25;;;;;;;0.00;0.00;;;16.70;72.40;;;;;;4967716;28;20047;-68
2023/09/25 09:37:55;;;;;;;0.00;0.00;;;16.80;73.40;;;;;;4967083;28;20524;-67
2023/09/25 09:40:24;;;;;;;0.20;0.20;;;16.80;73.70;;;;;;4967163;28;20042;-68
2023/09/25 09:42:50;;;;;;;0.00;0.00;;;16.80;72.10;;;;;;4967600;28;20122;-67
2023/09/25 09:45:17;;;;;;;0.00;0.00;;;16.90;72.10;;;;;;4968782;28;20137;-68
2023/09/25 09:47:45;;;;;;;0.00;0.00;;;16.90;72.60;;;;;;4968652;28;20564;-68
2023/09/25 09:50:12;;;;;;;0.00;0.00;;;16.90;72.60;;;;;;4971806;28;20065;-68
2023/09/25 09:52:39;;;;;;;0.00;0.00;;;17.00;73.40;;;;;;4972661;28;20042;-68
2023/09/25 09:55:07;;;;;;;0.00;0.00;;;17.10;73.80;;;;;;4972181;28;20046;-68
2023/09/25 09:57:33;;;;;;;0.00;0.00;;;17.10;72.40;;;;;;4968241;28;20775;-67
2023/09/25 09:59:59;;;;;;;0.00;0.00;;;17.10;72.30;;;;;;4972424;28;20050;-67
2023/09/25 10:02:30;;;;;;;0.00;0.00;;;17.20;70.30;;;;;;4971812;28;20047;-67
2023/09/25 10:04:57;;;;;;;0.00;0.00;;;17.30;71.10;;;;;;4971690;28;20459;-68
2023/09/25 10:07:22;;;;;;;0.00;0.00;;;17.40;69.80;;;;;;4971628;28;20818;-67
2023/09/25 10:09:56;;;;;;;0.00;0.00;;;17.40;70.20;;;;;;4970235;28;20050;-68
2023/09/25 10:12:48;;;;;;;0.10;0.10;;;17.50;70.20;;;;;;4969858;28;20488;-68
2023/09/25 10:15:25;;;;;;;0.00;0.00;;;17.50;71.00;;;;;;4964984;28;20066;-67
2023/09/25 10:17:52;;;;;;;0.00;0.00;;;17.60;71.20;;;;;;4971380;28;20096;-67
2023/09/25 10:20:48;;;;;;;0.10;0.10;;;17.60;71.00;;;;;;4971503;28;20841;-67
2023/09/25 10:23:25;;;;;;;0.00;0.00;;;17.70;70.90;;;;;;4955309;28;20138;-67
2023/09/25 10:25:54;;;;;;;0.00;0.00;;;17.60;69.60;;;;;;4968536;28;20121;-68
2023/09/25 10:28:23;;;;;;;0.00;0.00;;;17.70;70.20;;;;;;4962524;28;20046;-68
2023/09/25 10:30:49;;;;;;;0.45;0.43;;;17.80;70.70;;;;;;4957683;28;20062;-67
2023/09/25 10:33:20;;;;;;;0.00;0.00;;;17.80;70.20;;;;;;4965606;28;20106;-67
2023/09/25 10:35:49;;;;;;;0.03;0.03;;;17.90;70.50;;;;;;4961433;28;20056;-67
2023/09/25 10:38:19;;;;;;;0.20;0.20;;;17.90;70.20;;;;;;4959981;28;20130;-67
2023/09/25 10:40:47;;;;;;;0.00;0.00;;;18.00;69.30;;;;;;4961628;28;20512;-67
2023/09/25 10:43:15;;;;;;;0.00;0.00;;;18.10;69.90;;;;;;4965124;28;20708;-67
2023/09/25 10:45:41;;;;;;;0.00;0.00;;;18.10;69.60;;;;;;4959177;28;20063;-67
2023/09/25 10:48:07;;;;;;;0.00;0.00;;;18.20;70.30;;;;;;4960857;28;20090;-68
2023/09/25 10:50:32;;;;;;;0.00;0.00;;;18.20;70.00;;;;;;4958234;28;20061;-68
2023/09/25 10:52:58;;;;;;;0.00;0.00;;;18.20;70.20;;;;;;4962031;28;20043;-67
2023/09/25 10:55:24;;;;;;;0.00;0.00;;;18.30;70.60;;;;;;4963788;28;20062;-67
2023/09/25 10:57:50;;;;;;;0.03;0.03;;;18.40;70.40;;;;;;4962849;28;20039;-68
2023/09/25 11:00:18;;;;;;;0.05;0.05;;;18.40;69.10;;;;;;4957591;28;20098;-68
2023/09/25 11:02:44;;;;;;;0.00;0.00;;;18.50;68.70;;;;;;4960192;28;20130;-69
2023/09/25 11:05:11;;;;;;;0.00;0.00;;;18.50;69.70;;;;;;4957522;28;20063;-68
2023/09/25 11:07:37;;;;;;;0.00;0.00;;;18.60;69.80;;;;;;4957371;28;20042;-68
2023/09/25 11:10:08;;;;;;;0.00;0.00;;;18.70;70.00;;;;;;4955898;28;20062;-68
2023/09/25 11:12:35;;;;;;;0.98;0.98;;;18.70;69.20;;;;;;4964391;28;20047;-67
2023/09/25 11:15:01;;;;;;;0.00;0.00;;;18.80;68.80;;;;;;4963445;28;20055;-68
2023/09/25 11:17:27;;;;;;;0.10;0.10;;;18.80;68.30;;;;;;4974782;28;20054;-67
2023/09/25 11:19:52;;;;;;;0.00;0.00;;;18.80;68.90;;;;;;4962399;28;20066;-68
2023/09/25 11:22:24;;;;;;;0.00;0.00;;;18.80;69.00;;;;;;4965999;28;20122;-69
2023/09/25 11:24:54;;;;;;;0.00;0.00;;;18.90;69.10;;;;;;4962603;28;20050;-68
2023/09/25 11:27:20;;;;;;;0.00;0.00;;;18.90;69.00;;;;;;4956809;28;20066;-68
2023/09/25 11:29:49;;;;;;;0.00;0.00;;;18.90;69.20;;;;;;4963397;28;20146;-68
2023/09/25 11:32:16;;;;;;;0.00;0.00;;;18.90;68.50;;;;;;4967323;28;20043;-68
2023/09/25 11:34:43;;;;;;;0.00;0.00;;;18.90;69.50;;;;;;4967448;28;20058;-67
2023/09/25 11:37:20;;;;;;;0.00;0.00;;;18.80;69.00;;;;;;4962469;28;20042;-68
2023/09/25 11:39:46;;;;;;;0.00;0.00;;;18.70;68.10;;;;;;4976604;28;20055;-68
2023/09/25 11:42:11;;;;;;;0.00;0.00;;;18.70;69.50;;;;;;4966832;28;20081;-68
2023/09/25 11:44:37;;;;;;;0.05;0.05;;;18.80;69.30;;;;;;4961243;28;20141;-68
2023/09/25 11:47:04;;;;;;;0.00;0.00;;;18.80;69.40;;;;;;4956684;28;20564;-69
2023/09/25 11:49:29;;;;;;;0.00;0.00;;;18.90;68.90;;;;;;4956831;28;20419;-68
2023/09/25 11:51:55;;;;;;;0.00;0.00;;;19.00;69.50;;;;;;4957649;28;20043;-69
2023/09/25 11:54:20;;;;;;;0.00;0.00;;;19.10;70.10;;;;;;4960666;28;20603;-68
2023/09/25 11:56:46;;;;;;;0.17;0.17;;;19.10;69.60;;;;;;4961232;28;20455;-69
2023/09/25 11:59:15;;;;;;;0.17;0.15;;;19.10;69.80;;;;;;4943795;28;20919;-69
2023/09/25 12:01:41;;;;;;;0.00;0.00;;;19.20;69.70;;;;;;4955467;28;20055;-69
2023/09/25 12:04:10;;;;;;;0.10;0.10;;;19.30;69.70;;;;;;4958566;28;20063;-69
2023/09/25 12:06:35;;;;;;;0.00;0.00;;;19.50;68.10;;;;;;4957455;28;20054;-69
2023/09/25 12:09:11;;;;;;;0.00;0.00;;;19.50;69.10;;;;;;4960322;28;20071;-69
2023/09/25 12:11:40;;;;;;;0.90;0.80;;;19.60;67.50;;;;;;4956162;28;20512;-68
2023/09/25 12:14:06;;;;;;;0.45;0.45;;;19.70;68.70;;;;;;4960290;28;20105;-69
2023/09/25 12:16:33;;;;;;;0.00;0.00;;;19.70;68.10;;;;;;4963841;28;20043;-69
2023/09/25 12:18:59;;;;;;;0.00;0.00;;;19.80;68.10;;;;;;4961439;28;20166;-67
2023/09/25 12:21:24;;;;;;;0.00;0.00;;;19.80;68.10;;;;;;4958402;28;20125;-69
2023/09/25 12:23:50;;;;;;;0.43;0.43;;;19.90;68.20;;;;;;4961178;28;20058;-68
2023/09/25 12:26:16;;;;;;;0.00;0.00;;;20.00;68.60;;;;;;4959139;28;20149;-69
2023/09/25 12:28:42;;;;;;;0.00;0.00;;;20.10;68.20;;;;;;4956940;28;20091;-69
2023/09/25 12:31:07;;;;;;;0.00;0.00;;;20.10;67.80;;;;;;4965666;28;20039;-68
2023/09/25 12:33:33;;;;;;;0.00;0.00;;;20.10;68.10;;;;;;4961173;28;20046;-68
2023/09/25 12:35:59;;;;;;;0.65;0.57;;;20.20;67.20;;;;;;4959481;28;20042;-68
2023/09/25 12:38:26;;;;;;;0.08;0.08;;;20.30;68.00;;;;;;4956063;28;20042;-68
2023/09/25 12:40:51;;;;;;;0.00;0.00;;;20.30;67.70;;;;;;4955795;28;20050;-69
2023/09/25 12:43:17;;;;;;;0.35;0.35;;;20.40;67.10;;;;;;4956417;28;20055;-69
2023/09/25 12:45:42;;;;;;;0.05;0.05;;;20.50;67.10;;;;;;4958314;28;20062;-70